sensor_id;sensor_type;location;lat;lon;timestamp;temperature;humidity
3232;DHT22;1628;48.884;9.210;2022-09-09T04:01:42;16.20;99.90
3232;DHT22;1628;48.884;9.210;2022-09-09T04:04:10;16.20;99.90
3232;DHT22;1628;48.884;9.210;2022-09-09T04:06:37;16.20;99.90
3232;DHT22;1628;48.884;9.210;2022-09-09T04:09:04;16.20;99.90
3232;DHT22;1628;48.884;9.210;2022-09-09T04:11:30;16.20;99.90
3232;DHT22;1628;48.884;9.210;2022-09-09T04:13:57;16.20;99.90
3232;DHT22;1628;48.884;9.210;2022-09-09T04:16:24;16.10;99.90
3232;DHT22;1628;48.884;9.210;2022-09-09T04:18:52;16.10;99.90
3232;DHT22;1628;48.884;9.210;2022-09-09T04:21:19;16.10;99.90
3232;DHT22;1628;48.884;9.210;2022-09-09T04:23:46;16.00;99.90
3232;DHT22;1628;48.884;9.210;2022-09-09T04:26:13;16.00;99.90
3232;DHT22;1628;48.884;9.210;2022-09-09T04:28:40;16.00;99.90
3232;DHT22;1628;48.884;9.210;2022-09-09T04:31:08;16.10;99.90
3232;DHT22;1628;48.884;9.210;2022-09-09T04:33:35;16.10;99.90
3232;DHT22;1628;48.884;9.210;2022-09-09T04:36:04;16.20;99.90
3232;DHT22;1628;48.884;9.210;2022-09-09T04:38:31;16.20;99.90
3232;DHT22;1628;48.884;9.210;2022-09-09T04:40:58;16.30;99.90
3232;DHT22;1628;48.884;9.210;2022-09-09T04:43:24;16.30;99.90
3232;DHT22;1628;48.884;9.210;2022-09-09T04:45:56;16.30;99.90
3232;DHT22;1628;48.884;9.210;2022-09-09T04:48:23;16.30;99.90
3232;DHT22;1628;48.884;9.210;2022-09-09T04:50:55;16.20;99.90
3232;DHT22;1628;48.884;9.210;2022-09-09T04:53:23;16.20;99.90
3232;DHT22;1628;48.884;9.210;2022-09-09T04:55:50;16.20;99.90
3232;DHT22;1628;48.884;9.210;2022-09-09T04:58:17;16.20;99.90
3232;DHT22;1628;48.884;9.210;2022-09-09T05:00:44;16.20;99.90
3232;DHT22;1628;48.884;9.210;2022-09-09T05:03:11;16.20;99.90
3232;DHT22;1628;48.884;9.210;2022-09-09T05:05:38;16.30;99.90
3232;DHT22;1628;48.884;9.210;2022-09-09T05:08:07;16.40;99.90
3232;DHT22;1628;48.884;9.210;2022-09-09T05:10:37;16.50;99.90
3232;DHT22;1628;48.884;9.210;2022-09-09T05:13:04;16.50;99.90
3232;DHT22;1628;48.884;9.210;2022-09-09T05:15:32;16.50;99.90
3232;DHT22;1628;48.884;9.210;2022-09-09T05:18:00;16.50;99.90
3232;DHT22;1628;48.884;9.210;2022-09-09T05:20:28;16.50;99.90
3232;DHT22;1628;48.884;9.210;2022-09-09T05:22:55;16.60;99.90
3232;DHT22;1628;48.884;9.210;2022-09-09T05:25:22;16.70;99.90
3232;DHT22;1628;48.884;9.210;2022-09-09T05:27:51;16.70;99.90
3232;DHT22;1628;48.884;9.210;2022-09-09T05:30:19;16.70;99.90
3232;DHT22;1628;48.884;9.210;2022-09-09T05:32:46;16.90;99.90
3232;DHT22;1628;48.884;9.210;2022-09-09T05:35:14;17.00;99.90
3232;DHT22;1628;48.884;9.210;2022-09-09T05:37:41;17.10;99.90
3232;DHT22;1628;48.884;9.210;2022-09-09T05:40:08;17.10;99.90
3232;DHT22;1628;48.884;9.210;2022-09-09T05:42:36;17.10;99.90
3232;DHT22;1628;48.884;9.210;2022-09-09T05:45:06;17.10;99.90
3232;DHT22;1628;48.884;9.210;2022-09-09T05:47:33;17.10;99.90
3232;DHT22;1628;48.884;9.210;2022-09-09T05:50:01;17.20;99.90
3232;DHT22;1628;48.884;9.210;2022-09-09T05:52:27;17.30;99.90
3232;DHT22;1628;48.884;9.210;2022-09-09T05:54:54;17.50;99.90
3232;DHT22;1628;48.884;9.210;2022-09-09T05:57:22;17.60;99.90
3232;DHT22;1628;48.884;9.210;2022-09-09T05:59:48;17.60;99.90
3232;DHT22;1628;48.884;9.210;2022-09-09T06:02:17;17.70;99.90
3232;DHT22;1628;48.884;9.210;2022-09-09T06:04:43;17.90;99.90
3232;DHT22;1628;48.884;9.210;2022-09-09T06:07:10;18.00;99.90
3232;DHT22;1628;48.884;9.210;2022-09-09T06:09:37;18.10;99.90
3232;DHT22;1628;48.884;9.210;2022-09-09T06:12:04;18.10;99.90
3232;DHT22;1628;48.884;9.210;2022-09-09T06:14:30;18.10;99.90
3232;DHT22;1628;48.884;9.210;2022-09-09T06:16:57;18.20;99.90
3232;DHT22;1628;48.884;9.210;2022-09-09T06:19:25;18.30;99.90
3232;DHT22;1628;48.884;9.210;2022-09-09T06:21:52;18.30;99.90
3232;DHT22;1628;48.884;9.210;2022-09-09T06:24:19;18.30;99.90
3232;DHT22;1628;48.884;9.210;2022-09-09T06:26:45;18.30;99.90
3232;DHT22;1628;48.884;9.210;2022-09-09T06:29:12;18.30;99.90
3232;DHT22;1628;48.884;9.210;2022-09-09T06:31:38;18.20;99.90
3232;DHT22;1628;48.884;9.210;2022-09-09T06:34:08;18.10;99.90
3232;DHT22;1628;48.884;9.210;2022-09-09T06:36:37;18.10;99.90
3232;DHT22;1628;48.884;9.210;2022-09-09T06:39:05;18.10;99.90
3232;DHT22;1628;48.884;9.210;2022-09-09T06:41:33;18.10;99.90
3232;DHT22;1628;48.884;9.210;2022-09-09T06:43:59;18.10;99.90
3232;DHT22;1628;48.884;9.210;2022-09-09T06:46:28;18.10;99.90
3232;DHT22;1628;48.884;9.210;2022-09-09T06:48:56;18.10;99.90
3232;DHT22;1628;48.884;9.210;2022-09-09T06:51:25;18.20;99.90
3232;DHT22;1628;48.884;9.210;2022-09-09T06:53:55;18.20;99.90
3232;DHT22;1628;48.884;9.210;2022-09-09T06:56:24;18.30;99.90
3232;DHT22;1628;48.884;9.210;2022-09-09T06:58:52;18.40;99.90
3232;DHT22;1628;48.884;9.210;2022-09-09T07:01:21;18.40;99.90
3232;DHT22;1628;48.884;9.210;2022-09-09T07:03:50;18.50;99.90
3232;DHT22;1628;48.884;9.210;2022-09-09T07:06:19;18.70;99.90
3232;DHT22;1628;48.884;9.210;2022-09-09T07:08:49;18.70;99.90
3232;DHT22;1628;48.884;9.210;2022-09-09T07:11:19;18.90;99.90
3232;DHT22;1628;48.884;9.210;2022-09-09T07:13:46;18.90;99.90
3232;DHT22;1628;48.884;9.210;2022-09-09T07:16:15;19.10;99.90
3232;DHT22;1628;48.884;9.210;2022-09-09T07:18:42;19.20;99.90
3232;DHT22;1628;48.884;9.210;2022-09-09T07:21:10;19.40;99.90
3232;DHT22;1628;48.884;9.210;2022-09-09T07:23:37;19.70;99.90
3232;DHT22;1628;48.884;9.210;2022-09-09T07:26:08;19.90;99.90
3232;DHT22;1628;48.884;9.210;2022-09-09T07:28:37;20.00;99.90
3232;DHT22;1628;48.884;9.210;2022-09-09T07:31:05;20.20;99.90
3232;DHT22;1628;48.884;9.210;2022-09-09T07:33:33;20.40;99.90
3232;DHT22;1628;48.884;9.210;2022-09-09T07:36:05;20.40;99.90
3232;DHT22;1628;48.884;9.210;2022-09-09T07:38:37;20.50;99.90
3232;DHT22;1628;48.884;9.210;2022-09-09T07:41:05;20.70;99.90
3232;DHT22;1628;48.884;9.210;2022-09-09T07:43:34;20.80;99.90
3232;DHT22;1628;48.884;9.210;2022-09-09T07:46:02;21.00;99.90
3232;DHT22;1628;48.884;9.210;2022-09-09T07:48:29;21.10;99.90
3232;DHT22;1628;48.884;9.210;2022-09-09T07:51:04;21.30;99.90
3232;DHT22;1628;48.884;9.210;2022-09-09T07:53:32;21.40;99.90
3232;DHT22;1628;48.884;9.210;2022-09-09T07:56:02;21.60;99.90
3232;DHT22;1628;48.884;9.210;2022-09-09T07:58:29;21.80;99.90
3232;DHT22;1628;48.884;9.210;2022-09-09T08:00:56;22.00;99.90
3232;DHT22;1628;48.884;9.210;2022-09-09T08:03:24;22.10;99.90
3232;DHT22;1628;48.884;9.210;2022-09-09T08:05:51;22.90;99.90
3232;DHT22;1628;48.884;9.210;2022-09-09T08:08:17;23.90;99.90
3232;DHT22;1628;48.884;9.210;2022-09-09T08:10:45;25.00;99.90
3232;DHT22;1628;48.884;9.210;2022-09-09T08:13:11;26.30;98.30
3232;DHT22;1628;48.884;9.210;2022-09-09T08:15:38;27.20;94.10
3232;DHT22;1628;48.884;9.210;2022-09-09T08:18:05;27.40;92.30
3232;DHT22;1628;48.884;9.210;2022-09-09T08:20:33;27.30;90.80
3232;DHT22;1628;48.884;9.210;2022-09-09T08:23:01;27.30;90.70
3232;DHT22;1628;48.884;9.210;2022-09-09T08:25:28;27.10;90.40
3232;DHT22;1628;48.884;9.210;2022-09-09T08:27:55;27.40;89.40
3232;DHT22;1628;48.884;9.210;2022-09-09T08:30:21;28.00;88.20
3232;DHT22;1628;48.884;9.210;2022-09-09T08:32:48;28.80;82.50
3232;DHT22;1628;48.884;9.210;2022-09-09T08:35:16;29.60;80.60
3232;DHT22;1628;48.884;9.210;2022-09-09T08:37:44;30.10;75.70
3232;DHT22;1628;48.884;9.210;2022-09-09T08:40:19;29.70;75.30
3232;DHT22;1628;48.884;9.210;2022-09-09T08:42:49;29.20;76.20
3232;DHT22;1628;48.884;9.210;2022-09-09T08:45:23;28.60;76.90
3232;DHT22;1628;48.884;9.210;2022-09-09T08:48:03;28.00;78.90
3232;DHT22;1628;48.884;9.210;2022-09-09T08:50:36;28.40;80.40
3232;DHT22;1628;48.884;9.210;2022-09-09T08:53:11;29.10;79.30
3232;DHT22;1628;48.884;9.210;2022-09-09T08:55:45;30.10;72.80
3232;DHT22;1628;48.884;9.210;2022-09-09T08:58:15;30.70;69.90
3232;DHT22;1628;48.884;9.210;2022-09-09T09:01:13;31.50;68.40
3232;DHT22;1628;48.884;9.210;2022-09-09T09:03:46;32.20;64.00
3232;DHT22;1628;48.884;9.210;2022-09-09T09:06:25;32.70;64.10
3232;DHT22;1628;48.884;9.210;2022-09-09T09:09:01;32.70;61.90
3232;DHT22;1628;48.884;9.210;2022-09-09T09:11:35;32.60;59.90
3232;DHT22;1628;48.884;9.210;2022-09-09T09:14:07;32.40;59.40
3232;DHT22;1628;48.884;9.210;2022-09-09T09:16:40;32.10;59.70
3232;DHT22;1628;48.884;9.210;2022-09-09T09:19:13;31.80;56.70
3232;DHT22;1628;48.884;9.210;2022-09-09T09:21:43;31.70;56.20
3232;DHT22;1628;48.884;9.210;2022-09-09T09:24:18;31.50;56.80
3232;DHT22;1628;48.884;9.210;2022-09-09T09:26:45;30.90;57.30
3232;DHT22;1628;48.884;9.210;2022-09-09T09:29:13;29.90;58.30
3232;DHT22;1628;48.884;9.210;2022-09-09T09:31:44;28.90;59.40
3232;DHT22;1628;48.884;9.210;2022-09-09T09:34:13;27.90;61.70
3232;DHT22;1628;48.884;9.210;2022-09-09T09:36:42;27.00;64.10
3232;DHT22;1628;48.884;9.210;2022-09-09T09:39:10;26.40;66.50
3232;DHT22;1628;48.884;9.210;2022-09-09T09:41:40;26.00;68.60
3232;DHT22;1628;48.884;9.210;2022-09-09T09:44:22;25.50;71.10
3232;DHT22;1628;48.884;9.210;2022-09-09T09:46:50;24.90;73.10
3232;DHT22;1628;48.884;9.210;2022-09-09T09:49:16;24.70;72.70
3232;DHT22;1628;48.884;9.210;2022-09-09T09:51:43;24.80;73.50
3232;DHT22;1628;48.884;9.210;2022-09-09T09:54:18;25.30;75.80
3232;DHT22;1628;48.884;9.210;2022-09-09T09:56:50;26.30;75.50
3232;DHT22;1628;48.884;9.210;2022-09-09T09:59:21;27.40;74.10
3232;DHT22;1628;48.884;9.210;2022-09-09T10:01:49;28.30;70.70
3232;DHT22;1628;48.884;9.210;2022-09-09T10:04:17;29.30;66.00
3232;DHT22;1628;48.884;9.210;2022-09-09T10:06:46;30.00;63.70
3232;DHT22;1628;48.884;9.210;2022-09-09T10:09:22;30.30;61.20
3232;DHT22;1628;48.884;9.210;2022-09-09T10:11:55;30.80;59.40
3232;DHT22;1628;48.884;9.210;2022-09-09T10:14:30;31.20;57.40
3232;DHT22;1628;48.884;9.210;2022-09-09T10:17:10;31.80;56.40
3232;DHT22;1628;48.884;9.210;2022-09-09T10:19:53;32.30;55.10
3232;DHT22;1628;48.884;9.210;2022-09-09T10:22:26;32.80;55.60
3232;DHT22;1628;48.884;9.210;2022-09-09T10:25:14;33.50;52.10
3232;DHT22;1628;48.884;9.210;2022-09-09T10:27:54;33.40;50.70
3232;DHT22;1628;48.884;9.210;2022-09-09T10:30:30;33.60;50.70
3232;DHT22;1628;48.884;9.210;2022-09-09T10:33:04;33.40;51.20
3232;DHT22;1628;48.884;9.210;2022-09-09T10:35:37;33.60;50.40
3232;DHT22;1628;48.884;9.210;2022-09-09T10:38:16;33.30;50.60
3232;DHT22;1628;48.884;9.210;2022-09-09T10:40:58;33.20;51.30
3232;DHT22;1628;48.884;9.210;2022-09-09T10:46:25;32.90;51.60
3232;DHT22;1628;48.884;9.210;2022-09-09T10:49:07;32.70;51.60
3232;DHT22;1628;48.884;9.210;2022-09-09T10:51:43;31.70;51.80
3232;DHT22;1628;48.884;9.210;2022-09-09T10:54:32;30.90;54.70
3232;DHT22;1628;48.884;9.210;2022-09-09T10:57:10;30.30;55.40
3232;DHT22;1628;48.884;9.210;2022-09-09T10:59:46;29.80;56.50
3232;DHT22;1628;48.884;9.210;2022-09-09T11:02:19;29.00;58.00
3232;DHT22;1628;48.884;9.210;2022-09-09T11:04:51;28.30;59.50
3232;DHT22;1628;48.884;9.210;2022-09-09T11:07:25;27.50;60.40
3232;DHT22;1628;48.884;9.210;2022-09-09T11:09:58;26.70;64.80
3232;DHT22;1628;48.884;9.210;2022-09-09T11:12:27;26.10;68.50
3232;DHT22;1628;48.884;9.210;2022-09-09T11:14:59;25.50;73.30
3232;DHT22;1628;48.884;9.210;2022-09-09T11:17:35;24.80;74.50
3232;DHT22;1628;48.884;9.210;2022-09-09T11:20:05;24.40;75.90
3232;DHT22;1628;48.884;9.210;2022-09-09T11:22:36;24.00;79.30
3232;DHT22;1628;48.884;9.210;2022-09-09T11:25:10;23.60;83.80
3232;DHT22;1628;48.884;9.210;2022-09-09T11:27:50;23.10;90.40
3232;DHT22;1628;48.884;9.210;2022-09-09T11:30:21;22.50;96.30
3232;DHT22;1628;48.884;9.210;2022-09-09T11:33:18;21.70;99.90
3232;DHT22;1628;48.884;9.210;2022-09-09T11:36:02;21.10;99.90
3232;DHT22;1628;48.884;9.210;2022-09-09T11:38:40;20.50;99.90
3232;DHT22;1628;48.884;9.210;2022-09-09T11:41:10;20.00;99.90
3232;DHT22;1628;48.884;9.210;2022-09-09T11:43:41;19.70;99.90
3232;DHT22;1628;48.884;9.210;2022-09-09T11:46:10;19.40;99.90
3232;DHT22;1628;48.884;9.210;2022-09-09T11:48:39;19.20;99.90
3232;DHT22;1628;48.884;9.210;2022-09-09T11:51:09;19.10;99.90
3232;DHT22;1628;48.884;9.210;2022-09-09T11:53:48;19.00;99.90
3232;DHT22;1628;48.884;9.210;2022-09-09T11:56:25;19.00;99.90
3232;DHT22;1628;48.884;9.210;2022-09-09T11:58:58;19.10;99.90
3232;DHT22;1628;48.884;9.210;2022-09-09T12:01:45;19.20;99.90
3232;DHT22;1628;48.884;9.210;2022-09-09T12:04:34;19.40;99.90
3232;DHT22;1628;48.884;9.210;2022-09-09T12:07:04;19.60;99.90
3232;DHT22;1628;48.884;9.210;2022-09-09T12:09:39;19.80;99.90
3232;DHT22;1628;48.884;9.210;2022-09-09T12:12:25;20.20;99.90
3232;DHT22;1628;48.884;9.210;2022-09-09T12:15:21;20.40;99.90
3232;DHT22;1628;48.884;9.210;2022-09-09T12:17:52;20.60;99.90
3232;DHT22;1628;48.884;9.210;2022-09-09T12:20:21;20.80;99.90
3232;DHT22;1628;48.884;9.210;2022-09-09T12:23:05;21.00;99.90
3232;DHT22;1628;48.884;9.210;2022-09-09T12:25:52;21.40;99.90
3232;DHT22;1628;48.884;9.210;2022-09-09T12:28:24;22.00;99.90
3232;DHT22;1628;48.884;9.210;2022-09-09T12:30:58;22.40;99.90
3232;DHT22;1628;48.884;9.210;2022-09-09T12:33:34;22.90;99.90
3232;DHT22;1628;48.884;9.210;2022-09-09T12:36:03;23.10;99.90
3232;DHT22;1628;48.884;9.210;2022-09-09T12:38:34;23.20;99.90
3232;DHT22;1628;48.884;9.210;2022-09-09T12:41:02;23.50;99.90
3232;DHT22;1628;48.884;9.210;2022-09-09T12:43:29;23.70;99.90
3232;DHT22;1628;48.884;9.210;2022-09-09T12:45:58;24.00;99.20
3232;DHT22;1628;48.884;9.210;2022-09-09T12:48:32;24.30;99.60
3232;DHT22;1628;48.884;9.210;2022-09-09T12:50:59;24.40;96.60
3232;DHT22;1628;48.884;9.210;2022-09-09T12:53:29;24.40;94.00
3232;DHT22;1628;48.884;9.210;2022-09-09T12:55:57;24.30;92.00
3232;DHT22;1628;48.884;9.210;2022-09-09T12:58:26;24.10;91.60
3232;DHT22;1628;48.884;9.210;2022-09-09T13:00:54;23.80;91.70
3232;DHT22;1628;48.884;9.210;2022-09-09T13:03:23;23.60;91.90
3232;DHT22;1628;48.884;9.210;2022-09-09T13:05:53;23.70;93.60
3232;DHT22;1628;48.884;9.210;2022-09-09T13:08:20;24.00;93.10
3232;DHT22;1628;48.884;9.210;2022-09-09T13:10:49;24.00;91.90
3232;DHT22;1628;48.884;9.210;2022-09-09T13:13:21;24.10;94.10
3232;DHT22;1628;48.884;9.210;2022-09-09T13:15:50;24.20;93.10
3232;DHT22;1628;48.884;9.210;2022-09-09T13:18:20;24.50;92.80
3232;DHT22;1628;48.884;9.210;2022-09-09T13:20:48;24.60;91.40
3232;DHT22;1628;48.884;9.210;2022-09-09T13:23:18;24.70;93.10
3232;DHT22;1628;48.884;9.210;2022-09-09T13:25:54;24.70;91.30
3232;DHT22;1628;48.884;9.210;2022-09-09T13:28:22;25.00;92.30
3232;DHT22;1628;48.884;9.210;2022-09-09T13:30:56;25.20;90.60
3232;DHT22;1628;48.884;9.210;2022-09-09T13:33:30;25.30;88.20
3232;DHT22;1628;48.884;9.210;2022-09-09T13:36:00;25.20;88.70
3232;DHT22;1628;48.884;9.210;2022-09-09T13:38:32;25.20;88.80
3232;DHT22;1628;48.884;9.210;2022-09-09T13:41:01;25.30;86.30
3232;DHT22;1628;48.884;9.210;2022-09-09T13:43:31;25.50;85.80
3232;DHT22;1628;48.884;9.210;2022-09-09T13:46:01;25.80;82.90
3232;DHT22;1628;48.884;9.210;2022-09-09T13:48:29;25.70;81.50
3232;DHT22;1628;48.884;9.210;2022-09-09T13:50:59;25.80;80.00
3232;DHT22;1628;48.884;9.210;2022-09-09T13:53:26;25.70;80.90
3232;DHT22;1628;48.884;9.210;2022-09-09T13:55:54;25.40;79.50
3232;DHT22;1628;48.884;9.210;2022-09-09T13:58:22;25.50;79.20
3232;DHT22;1628;48.884;9.210;2022-09-09T14:00:51;25.30;82.10
3232;DHT22;1628;48.884;9.210;2022-09-09T14:03:18;25.20;78.50
3232;DHT22;1628;48.884;9.210;2022-09-09T14:05:45;25.00;79.40
3232;DHT22;1628;48.884;9.210;2022-09-09T14:08:21;24.90;79.30
3232;DHT22;1628;48.884;9.210;2022-09-09T14:10:48;24.80;77.90
3232;DHT22;1628;48.884;9.210;2022-09-09T14:13:17;24.90;81.00
3232;DHT22;1628;48.884;9.210;2022-09-09T14:15:43;25.20;77.30
3232;DHT22;1628;48.884;9.210;2022-09-09T14:18:11;25.30;76.30
3232;DHT22;1628;48.884;9.210;2022-09-09T14:20:39;25.40;77.50
3232;DHT22;1628;48.884;9.210;2022-09-09T14:23:07;25.40;76.90
3232;DHT22;1628;48.884;9.210;2022-09-09T14:25:36;25.30;75.10
3232;DHT22;1628;48.884;9.210;2022-09-09T14:28:03;25.10;75.40
3232;DHT22;1628;48.884;9.210;2022-09-09T14:30:31;25.10;75.80
3232;DHT22;1628;48.884;9.210;2022-09-09T14:32:57;25.10;74.80
3232;DHT22;1628;48.884;9.210;2022-09-09T14:35:25;25.00;74.60
3232;DHT22;1628;48.884;9.210;2022-09-09T14:37:52;25.00;75.70
3232;DHT22;1628;48.884;9.210;2022-09-09T14:40:18;25.00;75.60
3232;DHT22;1628;48.884;9.210;2022-09-09T14:42:45;24.70;75.70
3232;DHT22;1628;48.884;9.210;2022-09-09T14:45:12;24.60;75.30
3232;DHT22;1628;48.884;9.210;2022-09-09T14:47:40;24.40;78.10
3232;DHT22;1628;48.884;9.210;2022-09-09T14:50:07;24.30;77.70
3232;DHT22;1628;48.884;9.210;2022-09-09T14:52:34;24.10;77.40
3232;DHT22;1628;48.884;9.210;2022-09-09T14:55:01;23.90;77.10
3232;DHT22;1628;48.884;9.210;2022-09-09T14:57:27;23.80;75.80
3232;DHT22;1628;48.884;9.210;2022-09-09T14:59:54;23.70;78.40
3232;DHT22;1628;48.884;9.210;2022-09-09T15:02:22;23.60;76.20
3232;DHT22;1628;48.884;9.210;2022-09-09T15:04:50;23.50;77.70
3232;DHT22;1628;48.884;9.210;2022-09-09T15:07:18;23.40;78.00
3232;DHT22;1628;48.884;9.210;2022-09-09T15:09:44;23.40;78.40
3232;DHT22;1628;48.884;9.210;2022-09-09T15:12:13;23.30;78.90
3232;DHT22;1628;48.884;9.210;2022-09-09T15:14:39;23.30;80.40
3232;DHT22;1628;48.884;9.210;2022-09-09T15:17:06;23.50;80.00
3232;DHT22;1628;48.884;9.210;2022-09-09T15:19:33;23.70;79.40
3232;DHT22;1628;48.884;9.210;2022-09-09T15:22:01;23.80;78.80
3232;DHT22;1628;48.884;9.210;2022-09-09T15:24:27;23.70;78.00
3232;DHT22;1628;48.884;9.210;2022-09-09T15:26:54;23.70;81.30
3232;DHT22;1628;48.884;9.210;2022-09-09T15:29:21;23.70;80.00
3232;DHT22;1628;48.884;9.210;2022-09-09T15:31:48;23.50;76.70
3232;DHT22;1628;48.884;9.210;2022-09-09T15:34:15;23.40;78.30
3232;DHT22;1628;48.884;9.210;2022-09-09T15:36:44;23.40;77.90
3232;DHT22;1628;48.884;9.210;2022-09-09T15:39:14;23.40;78.40
3232;DHT22;1628;48.884;9.210;2022-09-09T15:41:42;23.40;79.40
3232;DHT22;1628;48.884;9.210;2022-09-09T15:44:09;23.40;77.40
3232;DHT22;1628;48.884;9.210;2022-09-09T15:46:38;23.40;78.60
3232;DHT22;1628;48.884;9.210;2022-09-09T15:49:08;23.40;77.00
3232;DHT22;1628;48.884;9.210;2022-09-09T15:51:36;23.30;77.30
3232;DHT22;1628;48.884;9.210;2022-09-09T15:54:04;23.20;77.30
3232;DHT22;1628;48.884;9.210;2022-09-09T15:56:32;23.20;78.60
3232;DHT22;1628;48.884;9.210;2022-09-09T15:59:01;23.10;78.50
3232;DHT22;1628;48.884;9.210;2022-09-09T16:01:29;22.90;76.90
3232;DHT22;1628;48.884;9.210;2022-09-09T16:03:56;22.70;78.10
3232;DHT22;1628;48.884;9.210;2022-09-09T16:06:24;22.60;79.80
3232;DHT22;1628;48.884;9.210;2022-09-09T16:08:54;22.60;80.90
3232;DHT22;1628;48.884;9.210;2022-09-09T16:11:23;22.50;82.90
3232;DHT22;1628;48.884;9.210;2022-09-09T16:13:52;22.50;84.10
3232;DHT22;1628;48.884;9.210;2022-09-09T16:16:21;22.50;85.00
3232;DHT22;1628;48.884;9.210;2022-09-09T16:18:50;22.40;85.30
3232;DHT22;1628;48.884;9.210;2022-09-09T16:21:21;22.40;85.90
3232;DHT22;1628;48.884;9.210;2022-09-09T16:23:50;22.40;84.90
3232;DHT22;1628;48.884;9.210;2022-09-09T16:26:19;22.30;86.10
3232;DHT22;1628;48.884;9.210;2022-09-09T16:28:46;22.20;85.60
3232;DHT22;1628;48.884;9.210;2022-09-09T16:31:16;22.00;86.90
3232;DHT22;1628;48.884;9.210;2022-09-09T16:33:43;21.60;82.70
3232;DHT22;1628;48.884;9.210;2022-09-09T16:36:11;21.20;82.90
3232;DHT22;1628;48.884;9.210;2022-09-09T16:38:39;20.90;86.30
3232;DHT22;1628;48.884;9.210;2022-09-09T16:41:06;20.60;92.90
3232;DHT22;1628;48.884;9.210;2022-09-09T16:43:34;20.20;98.60
3232;DHT22;1628;48.884;9.210;2022-09-09T16:46:02;19.80;99.90
3232;DHT22;1628;48.884;9.210;2022-09-09T16:48:32;19.40;99.90
3232;DHT22;1628;48.884;9.210;2022-09-09T16:51:02;19.20;99.90
3232;DHT22;1628;48.884;9.210;2022-09-09T16:53:29;18.90;99.90
3232;DHT22;1628;48.884;9.210;2022-09-09T16:55:55;18.80;99.90
3232;DHT22;1628;48.884;9.210;2022-09-09T16:58:22;18.70;99.90
3232;DHT22;1628;48.884;9.210;2022-09-09T17:00:49;18.50;99.90
3232;DHT22;1628;48.884;9.210;2022-09-09T17:03:16;18.40;99.90
3232;DHT22;1628;48.884;9.210;2022-09-09T17:05:44;18.30;99.90
3232;DHT22;1628;48.884;9.210;2022-09-09T17:08:11;18.30;99.90
3232;DHT22;1628;48.884;9.210;2022-09-09T17:10:40;18.30;99.90
3232;DHT22;1628;48.884;9.210;2022-09-09T17:13:08;18.30;99.90
3232;DHT22;1628;48.884;9.210;2022-09-09T17:15:39;18.30;99.90
3232;DHT22;1628;48.884;9.210;2022-09-09T17:18:08;18.30;99.90
3232;DHT22;1628;48.884;9.210;2022-09-09T17:20:35;18.30;99.90
3232;DHT22;1628;48.884;9.210;2022-09-09T17:23:03;18.20;99.90
3232;DHT22;1628;48.884;9.210;2022-09-09T17:25:30;18.20;99.90
3232;DHT22;1628;48.884;9.210;2022-09-09T17:27:57;18.10;99.90
3232;DHT22;1628;48.884;9.210;2022-09-09T17:30:25;18.10;99.90
3232;DHT22;1628;48.884;9.210;2022-09-09T17:32:51;18.10;99.90
3232;DHT22;1628;48.884;9.210;2022-09-09T17:35:18;18.00;99.90
3232;DHT22;1628;48.884;9.210;2022-09-09T17:37:45;18.00;99.90
3232;DHT22;1628;48.884;9.210;2022-09-09T17:40:13;17.90;99.90
3232;DHT22;1628;48.884;9.210;2022-09-09T17:42:40;17.90;99.90
3232;DHT22;1628;48.884;9.210;2022-09-09T17:45:08;17.90;99.90
3232;DHT22;1628;48.884;9.210;2022-09-09T17:47:35;17.90;99.90
3232;DHT22;1628;48.884;9.210;2022-09-09T17:50:02;17.90;99.90
3232;DHT22;1628;48.884;9.210;2022-09-09T17:52:29;17.90;99.90
3232;DHT22;1628;48.884;9.210;2022-09-09T17:54:56;17.90;99.90
3232;DHT22;1628;48.884;9.210;2022-09-09T17:57:24;17.90;99.90
3232;DHT22;1628;48.884;9.210;2022-09-09T17:59:52;17.80;99.90
3232;DHT22;1628;48.884;9.210;2022-09-09T18:02:18;17.80;99.90
3232;DHT22;1628;48.884;9.210;2022-09-09T18:04:45;17.70;99.90
3232;DHT22;1628;48.884;9.210;2022-09-09T18:07:12;17.60;99.90
3232;DHT22;1628;48.884;9.210;2022-09-09T18:09:39;17.60;99.90
3232;DHT22;1628;48.884;9.210;2022-09-09T18:12:06;17.60;99.90
3232;DHT22;1628;48.884;9.210;2022-09-09T18:14:35;17.60;99.90
3232;DHT22;1628;48.884;9.210;2022-09-09T18:17:02;17.60;99.90
3232;DHT22;1628;48.884;9.210;2022-09-09T18:19:30;17.60;99.90
3232;DHT22;1628;48.884;9.210;2022-09-09T18:21:58;17.60;99.90
3232;DHT22;1628;48.884;9.210;2022-09-09T18:24:24;17.60;99.90
3232;DHT22;1628;48.884;9.210;2022-09-09T18:26:51;17.60;99.90
3232;DHT22;1628;48.884;9.210;2022-09-09T18:29:21;17.70;99.90
3232;DHT22;1628;48.884;9.210;2022-09-09T18:31:50;17.70;99.90
3232;DHT22;1628;48.884;9.210;2022-09-09T18:34:18;17.70;99.90
3232;DHT22;1628;48.884;9.210;2022-09-09T18:36:47;17.80;99.90
3232;DHT22;1628;48.884;9.210;2022-09-09T18:39:19;17.80;99.90
3232;DHT22;1628;48.884;9.210;2022-09-09T18:41:47;17.80;99.90
3232;DHT22;1628;48.884;9.210;2022-09-09T18:44:16;17.80;99.90
3232;DHT22;1628;48.884;9.210;2022-09-09T18:46:45;17.90;99.90
3232;DHT22;1628;48.884;9.210;2022-09-09T18:49:13;17.90;99.90
3232;DHT22;1628;48.884;9.210;2022-09-09T18:51:41;17.90;99.90
3232;DHT22;1628;48.884;9.210;2022-09-09T18:54:11;17.90;99.90
3232;DHT22;1628;48.884;9.210;2022-09-09T18:56:39;17.90;99.90
3232;DHT22;1628;48.884;9.210;2022-09-09T18:59:07;17.90;99.90
3232;DHT22;1628;48.884;9.210;2022-09-09T19:01:35;17.90;99.90
3232;DHT22;1628;48.884;9.210;2022-09-09T19:04:03;17.90;99.90
3232;DHT22;1628;48.884;9.210;2022-09-09T19:06:35;17.80;99.90
3232;DHT22;1628;48.884;9.210;2022-09-09T19:09:02;17.80;99.90
3232;DHT22;1628;48.884;9.210;2022-09-09T19:11:29;17.80;99.90
3232;DHT22;1628;48.884;9.210;2022-09-09T19:13:57;17.80;99.90
3232;DHT22;1628;48.884;9.210;2022-09-09T19:16:26;17.80;99.90
3232;DHT22;1628;48.884;9.210;2022-09-09T19:18:54;17.80;99.90
3232;DHT22;1628;48.884;9.210;2022-09-09T19:21:23;17.70;99.90
3232;DHT22;1628;48.884;9.210;2022-09-09T19:23:56;17.70;99.90
3232;DHT22;1628;48.884;9.210;2022-09-09T19:26:24;17.70;99.90
3232;DHT22;1628;48.884;9.210;2022-09-09T19:28:51;17.70;99.90
3232;DHT22;1628;48.884;9.210;2022-09-09T19:31:19;17.70;99.90
3232;DHT22;1628;48.884;9.210;2022-09-09T19:33:47;17.70;99.90
3232;DHT22;1628;48.884;9.210;2022-09-09T19:36:17;17.60;99.90
3232;DHT22;1628;48.884;9.210;2022-09-09T19:38:44;17.60;99.90
3232;DHT22;1628;48.884;9.210;2022-09-09T19:41:15;17.50;99.90
3232;DHT22;1628;48.884;9.210;2022-09-09T19:43:43;17.50;99.90
3232;DHT22;1628;48.884;9.210;2022-09-09T19:46:11;17.50;99.90
3232;DHT22;1628;48.884;9.210;2022-09-09T19:48:39;17.50;99.90
3232;DHT22;1628;48.884;9.210;2022-09-09T19:51:08;17.50;99.90
3232;DHT22;1628;48.884;9.210;2022-09-09T19:53:37;17.50;99.90
3232;DHT22;1628;48.884;9.210;2022-09-09T19:56:05;17.50;99.90
3232;DHT22;1628;48.884;9.210;2022-09-09T19:58:35;17.50;99.90
3232;DHT22;1628;48.884;9.210;2022-09-09T20:01:06;17.50;99.90
3232;DHT22;1628;48.884;9.210;2022-09-09T20:03:34;17.50;99.90
3232;DHT22;1628;48.884;9.210;2022-09-09T20:06:03;17.50;99.90
3232;DHT22;1628;48.884;9.210;2022-09-09T20:08:30;17.40;99.90
3232;DHT22;1628;48.884;9.210;2022-09-09T20:10:57;17.40;99.90
3232;DHT22;1628;48.884;9.210;2022-09-09T20:13:25;17.40;99.90
3232;DHT22;1628;48.884;9.210;2022-09-09T20:15:57;17.30;99.90
3232;DHT22;1628;48.884;9.210;2022-09-09T20:18:26;17.30;99.90
3232;DHT22;1628;48.884;9.210;2022-09-09T20:20:57;17.30;99.90